createdAt,value
2017-07-27T00:00:24.738Z,15.95
2017-07-27T00:01:24.740Z,15.95
2017-07-27T00:02:24.743Z,15.96
2017-07-27T00:03:24.746Z,15.98
2017-07-27T00:04:24.752Z,16.00
2017-07-27T00:05:24.752Z,16.01
2017-07-27T00:06:24.752Z,16.00
2017-07-27T00:07:24.756Z,15.99
2017-07-27T00:08:24.762Z,15.96
2017-07-27T00:09:24.769Z,15.94
2017-07-27T00:10:24.764Z,15.92
2017-07-27T00:11:24.767Z,15.91
2017-07-27T00:12:24.772Z,15.90
2017-07-27T00:13:24.772Z,15.92
2017-07-27T00:14:24.840Z,15.93
2017-07-27T00:15:24.864Z,15.92
2017-07-27T00:16:24.787Z,15.91
2017-07-27T00:17:24.789Z,15.90
2017-07-27T00:18:24.787Z,15.87
2017-07-27T00:19:24.811Z,15.84
2017-07-27T00:20:24.800Z,15.80
2017-07-27T00:21:24.798Z,15.77
2017-07-27T00:22:24.799Z,15.73
2017-07-27T00:23:24.820Z,15.70
2017-07-27T00:24:24.807Z,15.67
2017-07-27T00:25:24.809Z,15.64
2017-07-27T00:26:24.813Z,15.63
2017-07-27T00:27:24.813Z,15.60
2017-07-27T00:28:24.816Z,15.58
2017-07-27T00:29:24.820Z,15.58
2017-07-27T00:30:24.823Z,15.55
2017-07-27T00:31:24.824Z,15.52
2017-07-27T00:32:24.830Z,15.48
2017-07-27T00:33:24.838Z,15.45
2017-07-27T00:34:24.835Z,15.40
2017-07-27T00:35:24.841Z,15.37
2017-07-27T00:36:24.840Z,15.33
2017-07-27T00:37:24.844Z,15.30
2017-07-27T00:38:24.850Z,15.25
2017-07-27T00:39:24.847Z,15.23
2017-07-27T00:40:24.854Z,15.20
2017-07-27T00:41:24.854Z,15.17
2017-07-27T00:42:24.858Z,15.13
2017-07-27T00:43:24.860Z,15.10
2017-07-27T00:44:24.863Z,15.06
2017-07-27T00:45:24.866Z,15.05
2017-07-27T00:46:24.871Z,15.03
2017-07-27T00:47:24.870Z,15.00
2017-07-27T00:48:24.873Z,15.03
2017-07-27T00:49:24.879Z,14.99
2017-07-27T00:50:24.880Z,14.95
2017-07-27T00:51:24.882Z,14.95
2017-07-27T00:52:24.884Z,14.92
2017-07-27T00:53:24.895Z,14.90
2017-07-27T00:54:24.894Z,14.89
2017-07-27T00:55:24.898Z,14.88
2017-07-27T00:56:24.898Z,14.88
2017-07-27T00:57:24.902Z,14.86
2017-07-27T00:58:24.905Z,14.87
2017-07-27T00:59:24.907Z,14.84
2017-07-27T01:02:35.174Z,14.85
2017-07-27T01:02:36.292Z,14.84
2017-07-27T01:02:37.099Z,14.80
2017-07-27T01:05:55.461Z,14.79
2017-07-27T01:05:56.536Z,14.76
2017-07-27T01:05:57.339Z,14.75
2017-07-27T01:08:33.238Z,14.74
2017-07-27T01:08:34.656Z,14.73
2017-07-27T01:08:35.485Z,14.72
2017-07-27T01:11:56.129Z,14.70
2017-07-27T01:14:05.122Z,14.67
2017-07-27T01:14:06.142Z,14.64
2017-07-27T01:14:06.748Z,14.64
2017-07-27T01:14:07.356Z,14.61
2017-07-27T01:14:24.947Z,14.59
2017-07-27T01:17:57.122Z,14.58
2017-07-27T01:17:58.192Z,14.59
2017-07-27T01:17:58.805Z,14.57
2017-07-27T01:20:29.278Z,14.55
2017-07-27T01:20:30.346Z,14.55
2017-07-27T01:20:30.950Z,14.54
2017-07-27T01:23:46.081Z,14.51
2017-07-27T01:23:47.478Z,14.51
2017-07-27T01:23:48.177Z,14.47
2017-07-27T01:26:18.108Z,14.44
2017-07-27T01:26:19.523Z,14.44
2017-07-27T01:26:24.983Z,14.43
2017-07-27T01:29:51.112Z,14.40
2017-07-27T01:29:52.269Z,14.41
2017-07-27T01:29:53.100Z,14.41
2017-07-27T01:33:03.182Z,14.41
2017-07-27T01:33:04.212Z,14.41
2017-07-27T01:33:04.813Z,14.43
2017-07-27T01:35:42.066Z,14.41
2017-07-27T01:35:43.372Z,14.39
2017-07-27T01:35:44.072Z,14.38
2017-07-27T01:39:28.126Z,14.37
2017-07-27T01:39:29.593Z,14.35
2017-07-27T01:39:30.301Z,14.31
2017-07-27T01:39:31.009Z,14.30
2017-07-27T01:40:25.022Z,14.32
2017-07-27T01:41:25.029Z,14.31
2017-07-27T01:44:30.449Z,14.31
2017-07-27T01:44:31.880Z,14.32
2017-07-27T01:44:32.664Z,14.28
2017-07-27T01:47:53.120Z,14.28
2017-07-27T01:47:54.220Z,14.25
2017-07-27T01:47:54.929Z,14.21
2017-07-27T01:51:04.405Z,14.17
2017-07-27T01:51:05.527Z,14.15
2017-07-27T01:51:06.131Z,14.13
2017-07-27T01:53:58.075Z,14.13
2017-07-27T01:53:59.384Z,14.15
2017-07-27T01:54:00.187Z,14.16
2017-07-27T01:56:29.435Z,14.19
2017-07-27T01:56:30.595Z,14.16
2017-07-27T01:56:31.230Z,14.20
2017-07-27T02:00:03.158Z,14.18
2017-07-27T02:00:04.587Z,14.17
2017-07-27T02:00:05.401Z,14.19
2017-07-27T02:00:25.439Z,14.21
2017-07-27T02:01:25.082Z,14.17
2017-07-27T02:02:25.088Z,14.17
2017-07-27T02:03:25.092Z,14.16
2017-07-27T02:04:25.091Z,14.18
2017-07-27T02:05:25.097Z,14.16
2017-07-27T02:06:25.097Z,14.14
2017-07-27T02:07:25.100Z,14.12
2017-07-27T02:08:25.109Z,14.10
2017-07-27T02:09:25.104Z,14.09
2017-07-27T02:10:25.114Z,14.10
2017-07-27T02:11:25.112Z,14.09
2017-07-27T02:12:25.126Z,14.08
2017-07-27T02:13:25.119Z,14.04
2017-07-27T02:14:25.122Z,14.07
2017-07-27T02:15:25.131Z,14.04
2017-07-27T02:16:25.129Z,14.05
2017-07-27T02:17:25.129Z,14.03
2017-07-27T02:18:25.137Z,14.01
2017-07-27T02:19:25.136Z,14.00
2017-07-27T02:20:25.146Z,13.96
2017-07-27T02:21:25.151Z,13.95
2017-07-27T02:22:25.146Z,13.95
2017-07-27T02:23:25.155Z,13.95
2017-07-27T02:24:25.159Z,13.95
2017-07-27T02:25:25.183Z,13.93
2017-07-27T02:26:25.157Z,13.93
2017-07-27T02:27:25.159Z,13.95
2017-07-27T02:28:25.161Z,13.95
2017-07-27T02:29:25.169Z,13.96
2017-07-27T02:30:25.169Z,13.98
2017-07-27T02:31:25.173Z,13.94
2017-07-27T02:32:25.178Z,13.91
2017-07-27T02:33:25.182Z,13.86
2017-07-27T02:34:25.181Z,13.87
2017-07-27T02:35:25.181Z,13.82
2017-07-27T02:36:25.185Z,13.80
2017-07-27T02:37:25.191Z,13.83
2017-07-27T02:38:25.190Z,13.82
2017-07-27T02:39:25.196Z,13.81
2017-07-27T02:40:25.218Z,13.81
2017-07-27T02:41:25.205Z,13.80
2017-07-27T02:42:25.205Z,13.81
2017-07-27T02:43:25.207Z,13.76
2017-07-27T02:44:25.211Z,13.75
2017-07-27T02:45:25.232Z,13.74
2017-07-27T02:46:25.222Z,13.70
2017-07-27T02:47:25.215Z,13.71
2017-07-27T02:48:25.221Z,13.70
2017-07-27T02:49:25.243Z,13.64
2017-07-27T02:50:25.230Z,13.63
2017-07-27T02:51:25.226Z,13.63
2017-07-27T02:52:25.244Z,13.62
2017-07-27T02:53:25.231Z,13.63
2017-07-27T02:54:25.233Z,13.64
2017-07-27T02:55:25.239Z,13.62
2017-07-27T02:56:25.245Z,13.63
2017-07-27T02:57:25.245Z,13.65
2017-07-27T02:58:25.250Z,13.67
2017-07-27T02:59:25.251Z,13.66
2017-07-27T03:00:25.258Z,13.65
2017-07-27T03:01:25.259Z,13.65
2017-07-27T03:02:25.271Z,13.69
2017-07-27T03:03:25.268Z,13.67
2017-07-27T03:06:00.130Z,13.65
2017-07-27T03:06:01.076Z,13.64
2017-07-27T03:06:25.274Z,13.65
2017-07-27T03:07:25.274Z,13.63
2017-07-27T03:08:25.288Z,13.63
2017-07-27T03:09:25.279Z,13.65
2017-07-27T03:10:25.286Z,13.64
2017-07-27T03:11:25.287Z,13.64
2017-07-27T03:12:25.294Z,13.63
2017-07-27T03:13:25.294Z,13.58
2017-07-27T03:14:25.321Z,13.58
2017-07-27T03:15:25.299Z,13.61
2017-07-27T03:16:25.303Z,13.63
2017-07-27T03:17:25.304Z,13.65
2017-07-27T03:18:25.305Z,13.65
2017-07-27T03:19:25.311Z,13.64
2017-07-27T03:20:25.309Z,13.64
2017-07-27T03:21:25.314Z,13.65
2017-07-27T03:22:25.318Z,13.68
2017-07-27T03:23:25.318Z,13.70
2017-07-27T03:24:25.323Z,13.73
2017-07-27T03:25:25.324Z,13.81
2017-07-27T03:26:25.331Z,13.87
2017-07-27T03:27:25.335Z,13.93
2017-07-27T03:28:25.332Z,13.95
2017-07-27T03:29:25.342Z,13.96
2017-07-27T03:30:25.339Z,13.91
2017-07-27T03:31:25.340Z,13.91
2017-07-27T03:32:25.348Z,13.89
2017-07-27T03:33:25.349Z,13.87
2017-07-27T03:34:25.356Z,13.82
2017-07-27T03:35:25.353Z,13.76
2017-07-27T03:36:25.359Z,13.74
2017-07-27T03:37:25.367Z,13.70
2017-07-27T03:38:25.365Z,13.68
2017-07-27T03:39:25.367Z,13.65
2017-07-27T03:40:25.369Z,13.64
2017-07-27T03:41:25.375Z,13.56
2017-07-27T03:42:25.386Z,13.54
2017-07-27T03:43:25.380Z,13.52
2017-07-27T03:44:25.380Z,13.48
2017-07-27T03:45:25.383Z,13.48
2017-07-27T03:46:25.386Z,13.48
2017-07-27T03:47:25.392Z,13.52
2017-07-27T03:48:25.391Z,13.58
2017-07-27T03:49:25.395Z,13.64
2017-07-27T03:50:25.398Z,13.71
2017-07-27T03:51:25.400Z,13.77
2017-07-27T03:52:25.404Z,13.79
2017-07-27T03:53:25.404Z,13.82
2017-07-27T03:54:25.408Z,13.88
2017-07-27T03:55:25.415Z,13.90
2017-07-27T03:56:25.416Z,13.93
2017-07-27T03:57:25.418Z,13.93
2017-07-27T03:58:25.421Z,13.96
2017-07-27T03:59:25.421Z,13.96
2017-07-27T04:00:25.427Z,14.00
2017-07-27T04:01:25.425Z,14.03
2017-07-27T04:02:25.432Z,14.06
2017-07-27T04:03:25.434Z,14.12
2017-07-27T04:04:25.435Z,14.14
2017-07-27T04:05:25.439Z,14.16
2017-07-27T04:06:25.446Z,14.20
2017-07-27T04:07:25.451Z,14.23
2017-07-27T04:08:25.487Z,14.25
2017-07-27T04:09:25.453Z,14.27
2017-07-27T04:10:25.458Z,14.27
2017-07-27T04:11:25.464Z,14.29
2017-07-27T04:12:25.460Z,14.31
2017-07-27T04:13:25.464Z,14.34
2017-07-27T04:14:25.465Z,14.37
2017-07-27T04:15:25.468Z,14.40
2017-07-27T04:16:25.473Z,14.42
2017-07-27T04:17:25.477Z,14.42
2017-07-27T04:18:25.476Z,14.40
2017-07-27T04:19:25.485Z,14.40
2017-07-27T04:20:25.484Z,14.45
2017-07-27T04:21:25.485Z,14.50
2017-07-27T04:22:25.492Z,14.53
2017-07-27T04:23:25.492Z,14.58
2017-07-27T04:24:25.495Z,14.61
2017-07-27T04:25:25.514Z,14.64
2017-07-27T04:26:25.505Z,14.68
2017-07-27T04:27:25.505Z,14.74
2017-07-27T04:28:25.507Z,14.78
2017-07-27T04:29:25.512Z,14.81
2017-07-27T04:30:25.512Z,14.86
2017-07-27T04:31:25.514Z,14.91
2017-07-27T04:32:25.519Z,14.98
2017-07-27T04:33:25.523Z,15.05
2017-07-27T04:34:25.529Z,15.13
2017-07-27T04:35:25.529Z,15.19
2017-07-27T04:36:25.533Z,15.25
2017-07-27T04:37:25.562Z,15.27
2017-07-27T04:38:25.538Z,15.34
2017-07-27T04:39:25.541Z,15.42
2017-07-27T04:40:25.544Z,15.48
2017-07-27T04:41:25.545Z,15.53
2017-07-27T04:42:25.547Z,15.56
2017-07-27T04:43:25.551Z,15.58
2017-07-27T04:44:25.552Z,15.57
2017-07-27T04:45:25.554Z,15.63
2017-07-27T04:46:25.560Z,15.66
2017-07-27T04:47:25.561Z,15.70
2017-07-27T04:48:25.570Z,15.75
2017-07-27T04:49:25.571Z,15.80
2017-07-27T04:50:25.569Z,15.82
2017-07-27T04:51:25.578Z,15.81
2017-07-27T04:52:25.578Z,15.79
2017-07-27T04:53:25.582Z,15.77
2017-07-27T04:54:25.586Z,15.70
2017-07-27T04:55:25.582Z,15.67
2017-07-27T04:56:25.587Z,15.67
2017-07-27T04:57:25.591Z,15.65
2017-07-27T04:58:25.594Z,15.64
2017-07-27T04:59:25.594Z,15.61
2017-07-27T05:00:25.599Z,15.59
2017-07-27T05:01:25.600Z,15.60
2017-07-27T05:02:25.602Z,15.58
2017-07-27T05:03:25.608Z,15.58
2017-07-27T05:04:25.608Z,15.56
2017-07-27T05:05:25.614Z,15.57
2017-07-27T05:06:25.621Z,15.63
2017-07-27T05:07:25.615Z,15.65
2017-07-27T05:08:25.621Z,15.76
2017-07-27T05:09:25.625Z,15.87
2017-07-27T05:10:25.626Z,15.91
2017-07-27T05:11:25.628Z,15.93
2017-07-27T05:12:25.637Z,15.92
2017-07-27T05:13:25.636Z,15.99
2017-07-27T05:14:25.642Z,15.96
2017-07-27T05:15:25.646Z,15.94
2017-07-27T05:16:25.647Z,15.94
2017-07-27T05:17:25.650Z,15.93
2017-07-27T05:18:25.653Z,15.96
2017-07-27T05:19:25.654Z,15.95
2017-07-27T05:20:25.659Z,15.96
2017-07-27T05:21:25.660Z,15.98
2017-07-27T05:22:25.667Z,15.92
2017-07-27T05:23:25.667Z,15.91
2017-07-27T05:24:25.670Z,15.89
2017-07-27T05:25:25.672Z,15.88
2017-07-27T05:26:25.678Z,15.90
2017-07-27T05:27:25.680Z,15.88
2017-07-27T05:28:25.683Z,15.86
2017-07-27T05:29:25.683Z,15.84
2017-07-27T05:30:25.690Z,15.79
2017-07-27T05:31:25.693Z,15.75
2017-07-27T05:32:25.690Z,15.75
2017-07-27T05:33:25.694Z,15.75
2017-07-27T05:34:25.698Z,15.77
2017-07-27T05:35:25.700Z,15.78
2017-07-27T05:36:25.703Z,15.77
2017-07-27T05:37:25.704Z,15.77
2017-07-27T05:38:25.707Z,15.78
2017-07-27T05:39:25.711Z,15.78
2017-07-27T05:40:25.717Z,15.78
2017-07-27T05:41:25.725Z,15.77
2017-07-27T05:42:25.720Z,15.77
2017-07-27T05:43:25.725Z,15.78
2017-07-27T05:44:25.727Z,15.80
2017-07-27T05:45:25.731Z,15.78
2017-07-27T05:46:25.730Z,15.80
2017-07-27T05:47:25.738Z,15.81
2017-07-27T05:48:25.743Z,15.79
2017-07-27T05:49:25.745Z,15.78
2017-07-27T05:50:25.742Z,15.79
2017-07-27T05:51:25.743Z,15.82
2017-07-27T05:52:25.746Z,15.84
2017-07-27T05:53:25.752Z,15.86
2017-07-27T05:54:25.754Z,15.85
2017-07-27T05:55:25.758Z,15.87
2017-07-27T05:56:25.758Z,15.89
2017-07-27T05:57:25.769Z,15.90
2017-07-27T05:58:25.771Z,15.91
2017-07-27T05:59:25.766Z,15.93
2017-07-27T06:00:25.780Z,15.94
2017-07-27T06:01:25.776Z,15.95
2017-07-27T06:02:25.776Z,15.95
2017-07-27T06:03:25.780Z,15.96
2017-07-27T06:04:25.785Z,15.96
2017-07-27T06:05:25.790Z,15.96
2017-07-27T06:06:25.795Z,15.97
2017-07-27T06:07:25.793Z,15.97
2017-07-27T06:08:25.797Z,15.97
2017-07-27T06:09:25.795Z,15.97
2017-07-27T06:10:25.800Z,15.98
2017-07-27T06:11:25.803Z,15.97
2017-07-27T06:12:25.806Z,15.97
2017-07-27T06:13:25.809Z,15.99
2017-07-27T06:14:25.813Z,16.01
2017-07-27T06:15:25.815Z,16.02
2017-07-27T06:16:25.816Z,16.03
2017-07-27T06:17:25.827Z,16.04
2017-07-27T06:18:25.823Z,16.05
2017-07-27T06:19:25.826Z,16.07
2017-07-27T06:20:25.829Z,16.06
2017-07-27T06:21:25.833Z,16.04
2017-07-27T06:22:25.837Z,16.05
2017-07-27T06:23:25.840Z,16.07
2017-07-27T06:24:25.843Z,16.09
2017-07-27T06:25:25.843Z,16.12
2017-07-27T06:26:25.848Z,16.14
2017-07-27T06:27:25.850Z,16.16
2017-07-27T06:28:25.853Z,16.18
2017-07-27T06:29:25.853Z,16.20
2017-07-27T06:30:25.861Z,16.25
2017-07-27T06:31:25.862Z,16.31
2017-07-27T06:32:25.868Z,16.38
2017-07-27T06:33:25.870Z,16.45
2017-07-27T06:34:25.872Z,16.52
2017-07-27T06:35:25.873Z,16.57
2017-07-27T06:36:25.878Z,16.64
2017-07-27T06:37:25.884Z,16.68
2017-07-27T06:38:25.882Z,16.71
2017-07-27T06:39:25.886Z,16.74
2017-07-27T06:40:25.894Z,16.77
2017-07-27T06:41:25.890Z,16.76
2017-07-27T06:42:25.891Z,16.75
2017-07-27T06:43:25.896Z,16.72
2017-07-27T06:44:25.898Z,16.69
2017-07-27T06:45:25.901Z,16.71
2017-07-27T06:46:25.902Z,16.69
2017-07-27T06:47:25.908Z,16.70
2017-07-27T06:48:25.911Z,16.70
2017-07-27T06:49:25.910Z,16.68
2017-07-27T06:50:25.917Z,16.67
2017-07-27T06:51:25.921Z,16.67
2017-07-27T06:52:25.955Z,16.66
2017-07-27T06:53:25.927Z,16.67
2017-07-27T06:54:25.924Z,16.64
2017-07-27T06:55:25.951Z,16.63
2017-07-27T06:56:25.935Z,16.65
2017-07-27T06:57:25.933Z,16.65
2017-07-27T06:58:25.936Z,16.65
2017-07-27T06:59:25.939Z,16.66
2017-07-27T07:00:25.943Z,16.67
2017-07-27T07:01:25.947Z,16.68
2017-07-27T07:02:25.955Z,16.67
2017-07-27T07:03:25.950Z,16.70
2017-07-27T07:04:25.952Z,16.70
2017-07-27T07:05:25.962Z,16.69
2017-07-27T07:06:25.959Z,16.70
2017-07-27T07:07:25.962Z,16.70
2017-07-27T07:08:25.966Z,16.68
2017-07-27T07:09:25.969Z,16.64
2017-07-27T07:10:25.972Z,16.63
2017-07-27T07:11:25.976Z,16.63
2017-07-27T07:12:25.974Z,16.63
2017-07-27T07:13:25.979Z,16.63
2017-07-27T07:14:25.983Z,16.62
2017-07-27T07:15:25.987Z,16.63
2017-07-27T07:16:25.988Z,16.62
2017-07-27T07:17:25.993Z,16.63
2017-07-27T07:18:26.006Z,16.63
2017-07-27T07:19:26.022Z,16.60
2017-07-27T07:20:26.004Z,16.60
2017-07-27T07:21:26.002Z,16.60
2017-07-27T07:22:26.009Z,16.61
2017-07-27T07:23:26.042Z,16.63
2017-07-27T07:24:26.014Z,16.65
2017-07-27T07:25:26.021Z,16.66
2017-07-27T07:26:26.023Z,16.67
2017-07-27T07:27:26.072Z,16.72
2017-07-27T07:28:26.027Z,16.74
2017-07-27T07:29:26.029Z,16.79
2017-07-27T07:30:26.035Z,16.83
2017-07-27T07:31:26.033Z,16.88
2017-07-27T07:32:26.036Z,16.93
2017-07-27T07:33:26.037Z,16.97
2017-07-27T07:34:26.047Z,17.02
2017-07-27T07:35:26.043Z,17.06
2017-07-27T07:36:26.046Z,17.07
2017-07-27T07:37:26.049Z,17.10
2017-07-27T07:38:26.051Z,17.15
2017-07-27T07:39:26.055Z,17.19
2017-07-27T07:40:26.057Z,17.26
2017-07-27T07:41:26.062Z,17.28
2017-07-27T07:42:26.071Z,17.32
2017-07-27T07:43:26.068Z,17.37
2017-07-27T07:44:26.079Z,17.41
2017-07-27T07:45:26.086Z,17.42
2017-07-27T07:46:26.097Z,17.44
2017-07-27T07:47:26.094Z,17.46
2017-07-27T07:48:26.101Z,17.49
2017-07-27T07:49:26.085Z,17.50
2017-07-27T07:50:26.087Z,17.52
2017-07-27T07:51:26.092Z,17.53
2017-07-27T07:52:26.092Z,17.54
2017-07-27T07:53:26.099Z,17.52
2017-07-27T07:54:26.101Z,17.54
2017-07-27T07:55:26.103Z,17.56
2017-07-27T07:56:26.134Z,17.58
2017-07-27T07:57:26.108Z,17.58
2017-07-27T07:58:26.115Z,17.59
2017-07-27T07:59:26.111Z,17.57
2017-07-27T08:00:26.137Z,17.56
2017-07-27T08:01:26.120Z,17.51
2017-07-27T08:02:26.123Z,17.48
2017-07-27T08:03:26.130Z,17.44
2017-07-27T08:04:26.130Z,17.47
2017-07-27T08:05:26.135Z,17.51
2017-07-27T08:06:26.133Z,17.50
2017-07-27T08:07:26.139Z,17.52
2017-07-27T08:08:26.141Z,17.56
2017-07-27T08:09:26.143Z,17.61
2017-07-27T08:10:26.147Z,17.63
2017-07-27T08:11:26.150Z,17.63
2017-07-27T08:12:26.149Z,17.67
2017-07-27T08:13:26.158Z,17.74
2017-07-27T08:14:26.158Z,17.80
2017-07-27T08:15:26.161Z,17.82
2017-07-27T08:16:26.165Z,17.85
2017-07-27T08:17:26.167Z,17.90
2017-07-27T08:18:26.169Z,17.94
2017-07-27T08:19:26.175Z,17.99
2017-07-27T08:20:26.182Z,18.02
2017-07-27T08:21:26.177Z,18.06
2017-07-27T08:22:26.184Z,18.16
2017-07-27T08:23:26.183Z,18.27
2017-07-27T08:24:26.186Z,18.40
2017-07-27T08:25:26.191Z,18.59
2017-07-27T08:26:26.189Z,18.82
2017-07-27T08:27:26.193Z,19.06
2017-07-27T08:28:26.197Z,19.20
2017-07-27T08:29:26.250Z,19.39
2017-07-27T08:30:26.209Z,19.50
2017-07-27T08:31:26.222Z,19.55
2017-07-27T08:32:26.214Z,19.61
2017-07-27T08:33:26.217Z,19.69
2017-07-27T08:34:26.220Z,19.75
2017-07-27T08:35:26.217Z,19.62
2017-07-27T08:36:26.231Z,19.47
2017-07-27T08:37:26.226Z,19.24
2017-07-27T08:38:26.234Z,19.10
2017-07-27T08:39:26.232Z,19.04
2017-07-27T08:40:26.227Z,18.98
2017-07-27T08:41:26.234Z,18.91
2017-07-27T08:42:26.237Z,18.86
2017-07-27T08:43:26.241Z,18.80
2017-07-27T08:44:26.247Z,18.78
2017-07-27T08:45:26.248Z,18.77
2017-07-27T08:46:26.285Z,18.74
2017-07-27T08:47:26.254Z,18.75
2017-07-27T08:48:26.256Z,18.76
2017-07-27T08:49:26.260Z,18.79
2017-07-27T08:50:26.266Z,18.77
2017-07-27T08:51:26.265Z,18.82
2017-07-27T08:52:26.264Z,18.85
2017-07-27T08:53:26.275Z,18.88
2017-07-27T08:54:26.276Z,18.88
2017-07-27T08:55:26.281Z,18.86
2017-07-27T08:56:26.278Z,18.82
2017-07-27T08:57:26.312Z,18.74
2017-07-27T08:58:26.287Z,18.70
2017-07-27T08:59:26.286Z,18.63
2017-07-27T09:00:26.288Z,18.57
2017-07-27T09:01:26.309Z,18.51
2017-07-27T09:02:26.298Z,18.47
2017-07-27T09:03:26.304Z,18.45
2017-07-27T09:04:26.305Z,18.39
2017-07-27T09:05:26.307Z,18.36
2017-07-27T09:06:26.308Z,18.33
2017-07-27T09:07:26.319Z,18.31
2017-07-27T09:08:26.308Z,18.25
2017-07-27T09:09:26.315Z,18.19
2017-07-27T09:10:26.316Z,18.15
2017-07-27T09:11:26.319Z,18.14
2017-07-27T09:12:26.324Z,18.14
2017-07-27T09:13:26.327Z,18.13
2017-07-27T09:14:26.334Z,18.14
2017-07-27T09:15:26.332Z,18.15
2017-07-27T09:16:26.334Z,18.16
2017-07-27T09:17:26.342Z,18.15
2017-07-27T09:18:26.349Z,18.17
2017-07-27T09:19:26.347Z,18.21
2017-07-27T09:20:26.389Z,18.22
2017-07-27T09:21:26.351Z,18.26
2017-07-27T09:22:26.353Z,18.30
2017-07-27T09:23:26.355Z,18.32
2017-07-27T09:24:26.364Z,18.34
2017-07-27T09:25:26.362Z,18.36
2017-07-27T09:26:26.379Z,18.38
2017-07-27T09:27:26.366Z,18.42
2017-07-27T09:28:26.366Z,18.47
2017-07-27T09:29:26.370Z,18.52
2017-07-27T09:30:26.375Z,18.56
2017-07-27T09:31:26.378Z,18.60
2017-07-27T09:32:26.385Z,18.66
2017-07-27T09:33:26.384Z,18.71
2017-07-27T09:34:26.385Z,18.78
2017-07-27T09:35:26.389Z,18.88
2017-07-27T09:36:26.397Z,18.96
2017-07-27T09:37:26.396Z,19.01
2017-07-27T09:38:26.396Z,19.06
2017-07-27T09:39:26.399Z,19.09
2017-07-27T09:40:26.404Z,19.11
2017-07-27T09:41:26.406Z,19.12
2017-07-27T09:42:26.410Z,19.16
2017-07-27T09:43:26.411Z,19.17
2017-07-27T09:44:26.414Z,19.18
2017-07-27T09:45:26.420Z,19.17
2017-07-27T09:46:26.428Z,19.17
2017-07-27T09:47:26.427Z,19.16
2017-07-27T09:48:26.430Z,19.18
2017-07-27T09:49:26.436Z,19.16
2017-07-27T09:50:26.436Z,19.13
2017-07-27T09:51:26.436Z,19.11
2017-07-27T09:52:26.448Z,19.08
2017-07-27T09:53:26.469Z,19.06
2017-07-27T09:54:26.450Z,19.03
2017-07-27T09:55:26.457Z,19.00
2017-07-27T09:56:26.451Z,18.99
2017-07-27T09:57:26.453Z,18.98
2017-07-27T09:58:26.467Z,18.96
2017-07-27T09:59:26.459Z,18.97
2017-07-27T10:00:26.467Z,18.96
2017-07-27T10:01:26.470Z,18.92
2017-07-27T10:02:26.472Z,18.93
2017-07-27T10:03:26.473Z,18.91
2017-07-27T10:04:26.475Z,18.90
2017-07-27T10:05:26.482Z,18.87
2017-07-27T10:06:26.486Z,18.77
2017-07-27T10:07:26.492Z,18.74
2017-07-27T10:08:26.489Z,18.72
2017-07-27T10:09:26.492Z,18.73
2017-07-27T10:10:26.492Z,18.76
2017-07-27T10:11:26.498Z,18.86
2017-07-27T10:12:26.499Z,18.97
2017-07-27T10:13:26.506Z,19.13
2017-07-27T10:14:26.510Z,19.28
2017-07-27T10:15:26.508Z,19.40
2017-07-27T10:16:26.510Z,19.49
2017-07-27T10:17:26.517Z,19.59
2017-07-27T10:18:26.515Z,19.69
2017-07-27T10:19:26.535Z,19.79
2017-07-27T10:20:26.523Z,19.88
2017-07-27T10:21:26.532Z,19.92
2017-07-27T10:22:26.528Z,19.94
2017-07-27T10:23:26.533Z,19.94
2017-07-27T10:24:26.532Z,19.89
2017-07-27T10:25:26.536Z,19.84
2017-07-27T10:26:26.538Z,19.83
2017-07-27T10:27:26.541Z,19.82
2017-07-27T10:28:26.545Z,19.78
2017-07-27T10:29:26.548Z,19.71
2017-07-27T10:30:26.549Z,19.65
2017-07-27T10:31:26.561Z,19.54
2017-07-27T10:32:26.557Z,19.53
2017-07-27T10:33:26.561Z,19.54
2017-07-27T10:34:26.568Z,19.53
2017-07-27T10:35:26.564Z,19.56
2017-07-27T10:36:26.575Z,19.57
2017-07-27T10:37:26.575Z,19.56
2017-07-27T10:38:26.573Z,19.55
2017-07-27T10:39:26.577Z,19.52
2017-07-27T10:40:26.585Z,19.49
2017-07-27T10:41:26.597Z,19.49
2017-07-27T10:42:26.583Z,19.44
2017-07-27T10:43:26.592Z,19.43
2017-07-27T10:44:26.592Z,19.37
2017-07-27T10:45:26.593Z,19.36
2017-07-27T10:46:26.598Z,19.37
2017-07-27T10:47:26.602Z,19.40
2017-07-27T10:48:26.604Z,19.41
2017-07-27T10:49:26.607Z,19.41
2017-07-27T10:50:26.611Z,19.38
2017-07-27T10:51:26.612Z,19.37
2017-07-27T10:52:26.615Z,19.38
2017-07-27T10:53:26.622Z,19.35
2017-07-27T10:54:26.623Z,19.34
2017-07-27T10:55:26.624Z,19.33
2017-07-27T10:56:26.627Z,19.32
2017-07-27T10:57:26.637Z,19.34
2017-07-27T10:58:26.635Z,19.35
2017-07-27T10:59:26.635Z,19.37
2017-07-27T11:00:26.638Z,19.38
2017-07-27T11:01:26.643Z,19.38
2017-07-27T11:02:26.642Z,19.38
2017-07-27T11:03:26.643Z,19.39
2017-07-27T11:04:26.650Z,19.41
2017-07-27T11:05:26.651Z,19.41
2017-07-27T11:06:26.655Z,19.41
2017-07-27T11:07:26.706Z,19.40
2017-07-27T11:08:26.660Z,19.42
2017-07-27T11:09:26.666Z,19.42
2017-07-27T11:10:26.666Z,19.44
2017-07-27T11:11:26.669Z,19.47
2017-07-27T11:12:26.673Z,19.49
2017-07-27T11:13:26.678Z,19.52
2017-07-27T11:14:26.689Z,19.53
2017-07-27T11:15:26.860Z,19.51
2017-07-27T11:16:26.833Z,19.49
2017-07-27T11:17:26.691Z,19.50
2017-07-27T11:18:26.690Z,19.52
2017-07-27T11:19:26.693Z,19.55
2017-07-27T11:20:26.700Z,19.54
2017-07-27T11:21:26.710Z,19.53
2017-07-27T11:22:26.702Z,19.57
2017-07-27T11:23:26.705Z,19.64
2017-07-27T11:24:26.764Z,19.66
2017-07-27T11:25:26.721Z,19.71
2017-07-27T11:26:26.713Z,19.76
2017-07-27T11:27:26.718Z,19.81
2017-07-27T11:28:26.723Z,19.90
2017-07-27T11:29:26.720Z,19.97
2017-07-27T11:30:26.746Z,19.99
2017-07-27T11:31:26.732Z,20.04
2017-07-27T11:32:26.740Z,20.13
2017-07-27T11:33:26.735Z,20.16
2017-07-27T11:34:26.737Z,20.18
2017-07-27T11:35:26.740Z,20.26
2017-07-27T11:36:26.774Z,20.30
2017-07-27T11:37:26.745Z,20.35
2017-07-27T11:38:26.746Z,20.41
2017-07-27T11:39:26.748Z,20.44
2017-07-27T11:40:26.749Z,20.40
2017-07-27T11:41:26.827Z,20.38
2017-07-27T11:42:26.763Z,20.35
2017-07-27T11:43:27.087Z,20.41
2017-07-27T11:44:26.763Z,20.52
2017-07-27T11:45:26.768Z,20.67
2017-07-27T11:46:26.767Z,20.82
2017-07-27T11:47:26.772Z,21.02
2017-07-27T11:48:26.780Z,21.23
2017-07-27T11:49:26.782Z,21.31
2017-07-27T11:50:26.778Z,21.42
2017-07-27T11:51:26.806Z,21.50
2017-07-27T11:52:26.794Z,21.48
2017-07-27T11:53:26.790Z,21.46
2017-07-27T11:54:26.795Z,21.38
2017-07-27T11:55:26.813Z,21.29
2017-07-27T11:56:26.796Z,21.19
2017-07-27T11:57:26.851Z,21.12
2017-07-27T11:58:26.825Z,21.06
2017-07-27T11:59:26.850Z,21.01
2017-07-27T12:00:26.816Z,21.01
2017-07-27T12:01:26.886Z,21.03
2017-07-27T12:02:26.822Z,21.12
2017-07-27T12:03:26.817Z,21.34
2017-07-27T12:04:26.820Z,21.59
2017-07-27T12:05:26.852Z,21.75
2017-07-27T12:06:26.829Z,21.83
2017-07-27T12:07:26.871Z,21.87
2017-07-27T12:08:26.834Z,21.66
2017-07-27T12:09:26.833Z,21.55
2017-07-27T12:10:26.836Z,21.53
2017-07-27T12:11:26.841Z,21.45
2017-07-27T12:12:26.845Z,21.41
2017-07-27T12:13:26.860Z,21.63
2017-07-27T12:14:26.852Z,21.80
2017-07-27T12:15:26.865Z,21.84
2017-07-27T12:16:26.872Z,21.78
2017-07-27T12:17:26.862Z,21.68
2017-07-27T12:18:26.877Z,21.66
2017-07-27T12:19:26.878Z,21.59
2017-07-27T12:20:26.870Z,21.47
2017-07-27T12:21:26.873Z,21.39
2017-07-27T12:22:26.873Z,21.36
2017-07-27T12:23:26.877Z,21.34
2017-07-27T12:24:26.878Z,21.23
2017-07-27T12:25:26.885Z,21.17
2017-07-27T12:26:26.887Z,21.12
2017-07-27T12:27:26.888Z,21.11
2017-07-27T12:28:26.895Z,21.12
2017-07-27T12:29:26.899Z,21.14
2017-07-27T12:30:26.898Z,21.17
2017-07-27T12:31:26.902Z,21.20
2017-07-27T12:32:26.905Z,21.23
2017-07-27T12:33:26.905Z,21.27
2017-07-27T12:34:26.908Z,21.32
2017-07-27T12:35:26.911Z,21.30
2017-07-27T12:36:26.913Z,21.37
2017-07-27T12:37:26.919Z,21.44
2017-07-27T12:38:26.924Z,21.48
2017-07-27T12:39:26.923Z,21.51
2017-07-27T12:40:26.935Z,21.55
2017-07-27T12:41:26.930Z,21.56
2017-07-27T12:42:26.942Z,21.52
2017-07-27T12:43:26.939Z,21.44
2017-07-27T12:44:26.940Z,21.40
2017-07-27T12:45:26.948Z,21.39
2017-07-27T12:46:26.958Z,21.34
2017-07-27T12:47:26.954Z,21.30
2017-07-27T12:48:26.947Z,21.23
2017-07-27T12:49:26.949Z,21.17
2017-07-27T12:50:26.964Z,21.12
2017-07-27T12:51:26.965Z,21.06
2017-07-27T12:52:27.009Z,21.03